createdAt,value
2022-12-26T00:02:53.271Z,1.90
2022-12-26T00:05:20.327Z,1.55
2022-12-26T00:07:47.305Z,1.55
2022-12-26T00:10:14.425Z,1.38
2022-12-26T00:12:41.381Z,1.42
2022-12-26T00:15:08.802Z,1.25
2022-12-26T00:17:38.668Z,1.05
2022-12-26T00:20:15.084Z,1.60
2022-12-26T00:22:44.725Z,1.33
2022-12-26T00:25:19.208Z,1.17
2022-12-26T00:27:56.481Z,0.80
2022-12-26T00:30:35.977Z,1.20
2022-12-26T00:42:11.245Z,1.80
2022-12-26T00:45:04.007Z,1.63
2022-12-26T00:50:14.612Z,1.52
2022-12-26T00:52:42.930Z,1.90
2022-12-26T00:55:10.841Z,2.10
2022-12-26T00:57:37.981Z,1.70
2022-12-26T01:11:50.238Z,5.15
2022-12-26T01:14:24.514Z,4.75
2022-12-26T01:16:54.915Z,4.90
2022-12-26T01:19:26.603Z,4.75
2022-12-26T01:21:59.481Z,5.13
2022-12-26T01:24:36.231Z,6.15
2022-12-26T01:27:07.514Z,5.75
2022-12-26T01:29:52.419Z,5.80
2022-12-26T01:33:09.779Z,6.30
2022-12-26T01:38:45.742Z,6.28
2022-12-26T01:41:22.157Z,6.18
2022-12-26T01:44:03.292Z,5.85
2022-12-26T01:46:46.572Z,6.00
2022-12-26T01:49:22.587Z,6.10
2022-12-26T01:51:58.723Z,6.35
2022-12-26T01:54:41.012Z,6.38
2022-12-26T02:07:02.420Z,4.13
2022-12-26T02:09:30.225Z,2.92
2022-12-26T02:13:01.128Z,3.28
2022-12-26T02:25:32.086Z,1.88
2022-12-26T02:29:28.539Z,1.75
2022-12-26T02:32:48.701Z,5.65
2022-12-26T02:35:49.285Z,6.38
2022-12-26T02:39:01.011Z,5.80
2022-12-26T02:41:42.643Z,6.45
2022-12-26T02:44:50.888Z,6.80
2022-12-26T02:47:36.761Z,5.15
2022-12-26T02:50:59.788Z,2.47
2022-12-26T02:54:28.359Z,2.42
2022-12-26T02:57:23.432Z,3.33
2022-12-26T03:00:21.565Z,3.05
2022-12-26T03:03:21.143Z,2.30
2022-12-26T03:06:47.708Z,2.53
2022-12-26T03:22:33.517Z,5.85
2022-12-26T03:25:27.033Z,5.18
2022-12-26T03:27:55.065Z,2.25
2022-12-26T03:30:41.555Z,4.05
2022-12-26T03:33:28.747Z,3.42
2022-12-26T03:35:56.034Z,2.95
2022-12-26T03:38:55.431Z,2.20
2022-12-26T03:42:06.383Z,1.92
2022-12-26T03:45:19.005Z,1.67
2022-12-26T03:48:13.531Z,1.70
2022-12-26T03:51:07.881Z,1.60
2022-12-26T03:54:24.056Z,1.60
2022-12-26T03:57:19.393Z,1.63
2022-12-26T04:00:23.656Z,1.30
2022-12-26T04:03:15.068Z,1.63
2022-12-26T04:06:07.340Z,1.60
2022-12-26T04:09:27.900Z,1.65
2022-12-26T04:12:20.265Z,1.70
2022-12-26T04:15:13.615Z,1.70
2022-12-26T04:18:14.324Z,1.42
2022-12-26T04:21:36.964Z,1.48
2022-12-26T04:24:34.098Z,1.07
2022-12-26T04:27:24.574Z,1.20
2022-12-26T04:30:10.057Z,1.50
2022-12-26T04:33:03.438Z,1.08
2022-12-26T04:36:03.426Z,1.65
2022-12-26T04:38:57.613Z,1.30
2022-12-26T04:41:48.021Z,1.40
2022-12-26T04:44:18.308Z,0.70
2022-12-26T04:46:48.517Z,1.40
2022-12-26T04:49:36.974Z,1.40
2022-12-26T04:52:13.300Z,1.30
2022-12-26T04:54:41.777Z,1.08
2022-12-26T04:57:09.150Z,1.30
2022-12-26T04:59:36.263Z,1.10
2022-12-26T05:02:22.145Z,1.45
2022-12-26T05:05:08.105Z,1.15
2022-12-26T05:07:56.117Z,1.35
2022-12-26T05:10:27.846Z,1.27
2022-12-26T05:12:55.630Z,1.35
2022-12-26T05:15:23.760Z,1.10
2022-12-26T05:18:09.163Z,1.20
2022-12-26T05:20:54.822Z,1.17
2022-12-26T05:23:45.512Z,1.10
2022-12-26T05:26:39.007Z,1.35
2022-12-26T05:29:06.395Z,1.17
2022-12-26T05:31:36.583Z,1.65
2022-12-26T05:34:06.017Z,1.60
2022-12-26T05:36:46.957Z,1.60
2022-12-26T05:39:14.418Z,1.48
2022-12-26T05:41:42.606Z,1.55
2022-12-26T05:44:11.132Z,1.10
2022-12-26T05:46:39.275Z,1.23
2022-12-26T05:49:07.073Z,1.20
2022-12-26T05:51:35.404Z,1.35
2022-12-26T05:54:03.280Z,1.75
2022-12-26T05:56:30.795Z,1.38
2022-12-26T05:59:01.992Z,1.70
2022-12-26T06:01:30.568Z,1.50
2022-12-26T06:04:00.519Z,1.50
2022-12-26T06:06:28.906Z,2.20
2022-12-26T06:08:57.249Z,1.65
2022-12-26T06:11:26.532Z,1.67
2022-12-26T06:13:55.021Z,2.10
2022-12-26T06:16:22.185Z,1.80
2022-12-26T06:18:49.768Z,1.77
2022-12-26T06:21:20.341Z,1.58
2022-12-26T06:23:48.830Z,1.70
2022-12-26T06:26:17.026Z,1.55
2022-12-26T06:28:44.748Z,2.00
2022-12-26T06:31:20.891Z,1.95
2022-12-26T06:33:55.807Z,1.55
2022-12-26T06:36:25.421Z,1.67
2022-12-26T06:38:53.067Z,1.75
2022-12-26T06:41:22.748Z,1.75
2022-12-26T06:43:50.784Z,1.55
2022-12-26T06:46:21.692Z,1.45
2022-12-26T06:48:48.914Z,1.50
2022-12-26T06:51:21.010Z,1.40
2022-12-26T06:53:50.124Z,1.90
2022-12-26T06:56:24.200Z,1.50
2022-12-26T06:59:00.697Z,1.40
2022-12-26T07:01:32.059Z,1.33
2022-12-26T07:04:00.247Z,1.33
2022-12-26T07:06:36.711Z,1.73
2022-12-26T07:09:14.595Z,1.60
2022-12-26T07:11:49.986Z,1.38
2022-12-26T07:14:17.438Z,1.58
2022-12-26T07:16:45.833Z,1.65
2022-12-26T07:19:15.373Z,1.73
2022-12-26T07:21:43.359Z,1.20
2022-12-26T07:24:22.275Z,1.25
2022-12-26T07:26:50.325Z,1.70
2022-12-26T07:29:17.448Z,1.80
2022-12-26T07:31:44.766Z,1.30
2022-12-26T07:34:11.930Z,2.05
2022-12-26T07:36:39.886Z,2.05
2022-12-26T07:39:07.583Z,1.75
2022-12-26T07:41:53.349Z,1.48
2022-12-26T07:44:20.481Z,1.73
2022-12-26T07:46:47.445Z,1.52
2022-12-26T07:49:14.897Z,1.30
2022-12-26T07:51:43.124Z,1.52
2022-12-26T07:54:12.063Z,1.88
2022-12-26T07:56:41.623Z,2.05
2022-12-26T07:59:18.744Z,1.77
2022-12-26T08:01:46.165Z,1.88
2022-12-26T08:04:14.249Z,1.67
2022-12-26T08:06:41.289Z,1.73
2022-12-26T08:09:12.662Z,1.60
2022-12-26T08:11:39.731Z,1.58
2022-12-26T08:14:06.724Z,1.00
2022-12-26T08:16:33.953Z,1.52
2022-12-26T08:19:03.824Z,1.55
2022-12-26T08:21:31.602Z,1.60
2022-12-26T08:23:59.224Z,1.00
2022-12-26T08:26:26.325Z,1.33
2022-12-26T08:28:56.342Z,1.58
2022-12-26T08:33:57.763Z,1.42
2022-12-26T08:36:25.478Z,1.40
2022-12-26T08:38:52.905Z,1.70
2022-12-26T08:41:20.174Z,1.35
2022-12-26T08:44:25.720Z,1.63
2022-12-26T08:46:39.340Z,1.42
2022-12-26T08:49:06.368Z,1.58
2022-12-26T08:51:33.450Z,1.40
2022-12-26T08:54:00.752Z,1.50
2022-12-26T08:56:29.088Z,1.58
2022-12-26T08:58:56.124Z,1.80
2022-12-26T09:01:27.313Z,1.17
2022-12-26T09:04:02.069Z,1.60
2022-12-26T09:06:33.513Z,1.92
2022-12-26T09:09:02.389Z,1.38
2022-12-26T09:11:29.691Z,1.70
2022-12-26T09:14:00.037Z,1.70
2022-12-26T09:16:37.220Z,1.50
2022-12-26T09:19:06.665Z,1.70
2022-12-26T09:21:33.778Z,1.30
2022-12-26T09:24:04.653Z,1.70
2022-12-26T09:26:32.959Z,1.40
2022-12-26T09:29:00.165Z,1.80
2022-12-26T09:31:31.123Z,1.38
2022-12-26T09:33:59.150Z,1.75
2022-12-26T09:36:29.726Z,1.85
2022-12-26T09:38:58.718Z,1.40
2022-12-26T09:41:59.959Z,1.33
2022-12-26T09:45:00.245Z,1.52
2022-12-26T09:47:58.218Z,1.50
2022-12-26T09:50:31.779Z,1.40
2022-12-26T09:53:12.218Z,1.60
2022-12-26T09:55:53.863Z,1.40
2022-12-26T09:58:33.941Z,1.60
2022-12-26T10:01:14.703Z,2.05
2022-12-26T10:03:46.736Z,1.35
2022-12-26T10:06:26.818Z,1.27
2022-12-26T10:09:03.402Z,1.50
2022-12-26T10:12:04.212Z,1.30
2022-12-26T10:14:59.708Z,1.55
2022-12-26T10:17:42.349Z,1.80
2022-12-26T10:23:22.433Z,1.75
2022-12-26T10:26:18.211Z,1.63
2022-12-26T10:29:09.593Z,1.17
2022-12-26T10:32:00.398Z,1.17
2022-12-26T10:34:41.517Z,1.60
2022-12-26T10:37:30.933Z,1.30
2022-12-26T10:40:16.733Z,1.65
2022-12-26T10:42:49.374Z,1.58
2022-12-26T10:45:45.331Z,1.55
2022-12-26T10:48:16.770Z,1.45
2022-12-26T10:50:49.316Z,1.15
2022-12-26T10:55:45.403Z,1.50
2022-12-26T10:58:28.057Z,1.70
2022-12-26T11:00:55.245Z,1.98
2022-12-26T11:03:22.549Z,1.55
2022-12-26T11:06:07.562Z,1.85
2022-12-26T11:08:50.092Z,1.35
2022-12-26T11:11:24.702Z,1.50
2022-12-26T11:14:02.072Z,1.50
2022-12-26T11:16:38.382Z,1.75
2022-12-26T11:19:05.877Z,1.40
2022-12-26T11:21:34.283Z,1.23
2022-12-26T11:24:10.613Z,1.85
2022-12-26T11:26:38.836Z,1.20
2022-12-26T11:29:19.656Z,1.58
2022-12-26T11:32:01.926Z,1.58
2022-12-26T11:34:46.197Z,1.88
2022-12-26T11:37:42.689Z,1.80
2022-12-26T11:40:20.042Z,1.33
2022-12-26T11:43:00.307Z,1.20
2022-12-26T11:45:35.463Z,1.38
2022-12-26T11:48:23.185Z,1.63
2022-12-26T11:50:51.530Z,1.30
2022-12-26T11:53:22.953Z,1.23
2022-12-26T11:56:03.131Z,1.20
2022-12-26T11:58:32.421Z,1.40
2022-12-26T12:01:00.144Z,1.10
2022-12-26T12:03:50.419Z,1.33
2022-12-26T12:07:24.429Z,1.20
2022-12-26T12:10:10.857Z,1.10
2022-12-26T12:12:59.338Z,1.40
2022-12-26T12:16:02.617Z,1.33
2022-12-26T12:18:51.042Z,1.25
2022-12-26T12:21:40.169Z,1.05
2022-12-26T12:24:44.361Z,1.25
2022-12-26T12:27:52.942Z,1.00
2022-12-26T12:31:13.900Z,1.52
2022-12-26T12:34:00.621Z,1.33
2022-12-26T12:36:59.993Z,1.20
2022-12-26T12:39:52.309Z,1.35
2022-12-26T12:42:44.624Z,1.20
2022-12-26T12:45:38.177Z,1.27
2022-12-26T12:48:20.396Z,1.40
2022-12-26T12:51:14.940Z,1.02
2022-12-26T12:54:01.980Z,1.30
2022-12-26T12:57:00.553Z,1.20
2022-12-26T13:00:04.483Z,1.13
2022-12-26T13:03:01.384Z,1.13
2022-12-26T13:05:44.338Z,1.30
2022-12-26T13:08:22.571Z,1.17
2022-12-26T13:10:59.984Z,0.60
2022-12-26T13:14:00.947Z,0.40
2022-12-26T13:16:43.288Z,0.50
2022-12-26T13:19:40.854Z,0.80
2022-12-26T13:22:19.382Z,0.20
2022-12-26T13:24:56.665Z,0.60
2022-12-26T13:27:36.858Z,0.70
2022-12-26T13:30:15.313Z,0.50
2022-12-26T13:32:46.619Z,0.70
2022-12-26T13:35:56.822Z,1.43
2022-12-26T13:38:58.512Z,0.80
2022-12-26T13:41:51.032Z,0.90
2022-12-26T13:44:21.150Z,0.60
2022-12-26T14:02:01.591Z,0.60
2022-12-26T14:05:33.944Z,0.70
2022-12-26T14:08:16.930Z,0.50
2022-12-26T14:11:20.760Z,0.93
2022-12-26T14:14:33.532Z,1.08
2022-12-26T14:17:40.151Z,0.82
2022-12-26T14:20:54.525Z,0.95
2022-12-26T14:23:53.504Z,1.08
2022-12-26T14:26:43.168Z,0.93
2022-12-26T14:29:47.979Z,1.20
2022-12-26T14:32:43.055Z,0.82
2022-12-26T14:35:27.612Z,0.60
2022-12-26T14:38:45.085Z,0.77
2022-12-26T14:42:27.004Z,0.80
2022-12-26T14:45:05.973Z,0.63
2022-12-26T14:48:18.934Z,0.80
2022-12-26T14:51:25.693Z,0.70
2022-12-26T14:54:36.316Z,0.70
2022-12-26T14:57:43.991Z,0.57
2022-12-26T15:00:20.647Z,0.50
2022-12-26T15:03:01.626Z,0.60
2022-12-26T15:05:37.970Z,0.60
2022-12-26T15:08:32.341Z,0.80
2022-12-26T15:11:31.460Z,0.80
2022-12-26T15:14:47.024Z,0.38
2022-12-26T15:17:50.407Z,0.60
2022-12-26T15:20:55.179Z,0.60
2022-12-26T15:24:11.999Z,0.70
2022-12-26T15:27:26.137Z,0.90
2022-12-26T15:30:20.743Z,1.00
2022-12-26T15:33:05.747Z,1.05
2022-12-26T15:36:30.701Z,1.02
2022-12-26T15:39:21.613Z,0.90
2022-12-26T15:42:23.813Z,1.05
2022-12-26T15:45:44.080Z,1.30
2022-12-26T15:48:44.427Z,1.40
2022-12-26T15:51:39.032Z,1.40
2022-12-26T15:54:52.460Z,1.15
2022-12-26T15:57:55.459Z,1.67
2022-12-26T16:00:36.991Z,1.75
2022-12-26T16:03:41.635Z,1.60
2022-12-26T16:06:46.301Z,1.50
2022-12-26T16:09:43.101Z,2.03
2022-12-26T16:12:32.132Z,2.13
2022-12-26T16:15:11.334Z,2.05
2022-12-26T16:17:40.140Z,2.40
2022-12-26T16:20:55.301Z,2.20
2022-12-26T16:23:29.104Z,2.33
2022-12-26T16:25:59.632Z,1.90
2022-12-26T16:28:42.720Z,1.95
2022-12-26T16:31:21.837Z,1.92
2022-12-26T16:33:53.298Z,2.10
2022-12-26T16:36:26.160Z,2.10
2022-12-26T16:38:54.267Z,1.77
2022-12-26T16:41:28.512Z,2.40
2022-12-26T16:44:17.994Z,2.33
2022-12-26T16:46:45.618Z,2.17
2022-12-26T16:49:12.923Z,2.00
2022-12-26T16:51:47.847Z,2.40
2022-12-26T16:54:40.280Z,2.83
2022-12-26T16:57:36.540Z,2.47
2022-12-26T17:00:04.569Z,2.47
2022-12-26T17:02:35.251Z,3.20
2022-12-26T17:05:18.654Z,2.92
2022-12-26T17:07:49.495Z,2.80
2022-12-26T17:10:23.733Z,2.92
2022-12-26T17:12:52.924Z,2.97
2022-12-26T17:15:28.235Z,3.00
2022-12-26T17:17:55.548Z,2.67
2022-12-26T17:20:22.474Z,2.50
2022-12-26T17:22:52.748Z,2.28
2022-12-26T17:25:26.309Z,2.28
2022-12-26T17:28:08.557Z,2.65
2022-12-26T17:30:45.429Z,1.65
2022-12-26T17:33:25.022Z,1.77
2022-12-26T17:39:27.094Z,1.73
2022-12-26T17:42:00.965Z,2.00
2022-12-26T17:44:41.637Z,1.75
2022-12-26T17:47:24.059Z,2.10
2022-12-26T17:49:53.814Z,1.60
2022-12-26T17:52:29.354Z,1.67
2022-12-26T17:55:00.002Z,1.27
2022-12-26T17:57:29.571Z,1.50
2022-12-26T17:59:57.507Z,1.73
2022-12-26T18:02:24.919Z,1.20
2022-12-26T18:04:51.996Z,1.33
2022-12-26T18:07:31.111Z,1.20
2022-12-26T18:10:01.350Z,1.40
2022-12-26T18:12:28.813Z,1.35
2022-12-26T18:15:01.794Z,0.73
2022-12-26T18:17:33.367Z,1.48
2022-12-26T18:20:01.598Z,1.35
2022-12-26T18:22:28.688Z,1.55
2022-12-26T18:24:55.679Z,1.23
2022-12-26T18:27:30.882Z,1.50
2022-12-26T18:29:59.769Z,1.35
2022-12-26T18:32:31.128Z,1.25
2022-12-26T18:34:59.240Z,1.83
2022-12-26T18:37:29.743Z,1.48
2022-12-26T18:39:56.988Z,0.90
2022-12-26T18:42:25.260Z,1.08
2022-12-26T18:44:52.417Z,1.08
2022-12-26T18:47:21.263Z,1.00
2022-12-26T18:49:49.186Z,0.95
2022-12-26T18:52:17.878Z,0.80
2022-12-26T18:54:45.555Z,0.70
2022-12-26T18:57:20.130Z,0.68
2022-12-26T18:59:48.364Z,0.73
2022-12-26T19:02:18.860Z,0.60
2022-12-26T19:04:51.321Z,0.90
2022-12-26T19:07:22.957Z,0.50
2022-12-26T19:09:55.704Z,0.40
2022-12-26T19:14:52.144Z,0.77
2022-12-26T19:17:19.440Z,0.35
2022-12-26T19:19:47.870Z,0.73
2022-12-26T19:22:14.922Z,0.70
2022-12-26T19:24:41.951Z,0.90
2022-12-26T19:27:08.959Z,0.70
2022-12-26T19:29:35.966Z,0.80
2022-12-26T19:32:03.598Z,0.70
2022-12-26T19:34:30.647Z,0.77
2022-12-26T19:36:57.714Z,0.60
2022-12-26T19:39:24.731Z,0.93
2022-12-26T19:41:51.776Z,0.70
2022-12-26T19:44:18.787Z,0.70
2022-12-26T19:46:46.943Z,0.68
2022-12-26T19:49:13.983Z,1.30
2022-12-26T19:51:41.041Z,0.70
2022-12-26T19:54:08.028Z,0.73
2022-12-26T19:56:35.188Z,0.60
2022-12-26T19:59:02.487Z,0.38
2022-12-26T20:01:32.250Z,0.80
2022-12-26T20:04:02.679Z,0.70
2022-12-26T20:06:32.774Z,0.63
2022-12-26T20:09:03.977Z,0.45
2022-12-26T20:11:35.131Z,0.70
2022-12-26T20:14:04.338Z,0.85
2022-12-26T20:17:04.428Z,0.50
2022-12-26T20:19:24.238Z,0.68
2022-12-26T20:21:51.971Z,0.90
2022-12-26T20:24:21.410Z,0.73
2022-12-26T20:26:49.592Z,0.73
2022-12-26T20:29:17.361Z,0.70
2022-12-26T20:31:44.912Z,0.77
2022-12-26T20:34:12.472Z,0.60
2022-12-26T20:36:41.610Z,0.80
2022-12-26T20:39:15.285Z,0.80
2022-12-26T20:41:43.077Z,0.80
2022-12-26T20:44:13.736Z,0.80
2022-12-26T20:46:42.848Z,0.90
2022-12-26T20:49:10.481Z,1.08
2022-12-26T20:51:40.616Z,1.20
2022-12-26T20:54:10.799Z,0.95
2022-12-26T20:56:38.954Z,0.85
2022-12-26T20:59:06.972Z,1.20
2022-12-26T21:01:35.573Z,1.27
2022-12-26T21:04:04.499Z,1.23
2022-12-26T21:06:35.709Z,1.38
2022-12-26T21:09:05.437Z,1.52
2022-12-26T21:11:39.637Z,2.33
2022-12-26T21:14:18.566Z,2.13
2022-12-26T21:16:53.500Z,2.22
2022-12-26T21:19:22.981Z,2.10
2022-12-26T21:21:54.089Z,2.13
2022-12-26T21:24:46.610Z,2.50
2022-12-26T21:27:13.631Z,2.13
2022-12-26T21:29:40.929Z,2.40
2022-12-26T21:32:07.904Z,2.05
2022-12-26T21:34:35.116Z,2.20
2022-12-26T21:37:20.870Z,2.35
2022-12-26T21:39:49.609Z,2.10
2022-12-26T21:42:16.675Z,2.20
2022-12-26T21:44:43.798Z,1.63
2022-12-26T21:47:10.865Z,1.92
2022-12-26T21:49:38.103Z,0.95
2022-12-26T21:52:07.011Z,1.52
2022-12-26T21:54:53.500Z,1.75
2022-12-26T21:57:21.412Z,1.02
2022-12-26T21:59:58.004Z,1.75
2022-12-26T22:02:52.998Z,2.03
2022-12-26T22:05:23.834Z,1.42
2022-12-26T22:07:58.434Z,1.70
2022-12-26T22:10:48.155Z,1.75
2022-12-26T22:13:16.142Z,2.22
2022-12-26T22:16:08.079Z,1.30
2022-12-26T22:19:11.161Z,1.43
2022-12-26T22:21:38.338Z,1.08
2022-12-26T22:24:05.645Z,1.90
2022-12-26T22:30:06.213Z,1.23
2022-12-26T22:32:33.950Z,1.20
2022-12-26T22:35:05.168Z,0.80
2022-12-26T22:37:32.171Z,1.48
2022-12-26T22:39:59.232Z,1.35
2022-12-26T22:42:29.428Z,1.90
2022-12-26T22:44:57.399Z,1.20
2022-12-26T22:47:25.802Z,1.30
2022-12-26T22:49:52.821Z,1.92
2022-12-26T22:52:20.578Z,1.40
2022-12-26T22:54:47.576Z,1.67
2022-12-26T22:57:15.149Z,1.50
2022-12-26T23:00:07.490Z,1.88
2022-12-26T23:02:29.304Z,1.58
2022-12-26T23:04:56.844Z,1.38
2022-12-26T23:07:24.012Z,1.25
2022-12-26T23:09:51.751Z,2.25
2022-12-26T23:12:37.829Z,2.15
2022-12-26T23:15:06.520Z,1.52
2022-12-26T23:17:58.016Z,1.90
2022-12-26T23:20:49.908Z,1.40
2022-12-26T23:23:17.302Z,1.15
2022-12-26T23:25:44.345Z,1.55
2022-12-26T23:28:30.026Z,1.00
2022-12-26T23:30:57.175Z,1.05
2022-12-26T23:33:25.284Z,2.28
2022-12-26T23:35:52.362Z,1.10
2022-12-26T23:38:19.340Z,1.10
2022-12-26T23:40:46.294Z,2.17
2022-12-26T23:43:13.420Z,0.88
2022-12-26T23:45:44.825Z,1.63
2022-12-26T23:48:13.200Z,1.85
2022-12-26T23:50:40.492Z,1.50
2022-12-26T23:53:07.860Z,1.50
2022-12-26T23:55:34.860Z,1.60
2022-12-26T23:58:01.948Z,1.58
